createdAt,value
2018-09-06T00:01:35.350Z,17.21
2018-09-06T00:04:03.529Z,17.37
2018-09-06T00:06:31.695Z,17.49
2018-09-06T00:09:02.923Z,17.54
2018-09-06T00:11:31.045Z,17.61
2018-09-06T00:13:59.311Z,17.66
2018-09-06T00:16:27.433Z,17.78
2018-09-06T00:18:55.545Z,17.73
2018-09-06T00:21:23.642Z,17.72
2018-09-06T00:23:51.764Z,17.62
2018-09-06T00:26:19.872Z,17.49
2018-09-06T00:28:48.012Z,17.41
2018-09-06T00:31:16.115Z,17.21
2018-09-06T00:33:44.208Z,17.26
2018-09-06T00:36:12.301Z,17.33
2018-09-06T00:38:40.384Z,17.32
2018-09-06T00:41:08.511Z,17.24
2018-09-06T00:43:37.263Z,17.09
2018-09-06T00:46:05.756Z,16.87
2018-09-06T00:48:33.819Z,16.73
2018-09-06T00:51:01.943Z,16.55
2018-09-06T00:53:30.412Z,16.46
2018-09-06T00:55:58.497Z,16.60
2018-09-06T00:58:26.599Z,16.53
2018-09-06T01:00:54.675Z,16.35
2018-09-06T01:03:22.763Z,16.10
2018-09-06T01:05:50.876Z,16.05
2018-09-06T01:08:18.946Z,16.02
2018-09-06T01:10:47.018Z,16.09
2018-09-06T01:13:15.180Z,16.14
2018-09-06T01:15:43.267Z,16.20
2018-09-06T01:18:11.372Z,16.25
2018-09-06T01:20:39.433Z,16.19
2018-09-06T01:23:07.511Z,16.19
2018-09-06T01:25:40.880Z,16.23
2018-09-06T01:28:08.964Z,16.36
2018-09-06T01:30:37.074Z,16.62
2018-09-06T01:33:05.167Z,16.71
2018-09-06T01:35:33.248Z,16.66
2018-09-06T01:38:01.830Z,16.66
2018-09-06T01:40:29.903Z,16.69
2018-09-06T01:42:58.004Z,16.67
2018-09-06T01:45:26.168Z,16.56
2018-09-06T01:47:54.316Z,16.52
2018-09-06T01:50:22.475Z,16.42
2018-09-06T01:52:50.547Z,16.38
2018-09-06T01:55:18.707Z,16.36
2018-09-06T01:57:46.775Z,16.31
2018-09-06T02:00:15.258Z,16.31
2018-09-06T02:02:43.636Z,16.31
2018-09-06T02:05:15.363Z,16.08
2018-09-06T02:07:43.452Z,15.96
2018-09-06T02:10:11.510Z,16.02
2018-09-06T02:12:39.585Z,16.06
2018-09-06T02:15:07.702Z,16.05
2018-09-06T02:17:35.822Z,16.11
2018-09-06T02:20:04.579Z,16.03
2018-09-06T02:22:33.279Z,15.99
2018-09-06T02:25:01.779Z,15.98
2018-09-06T02:27:29.873Z,15.97
2018-09-06T02:29:57.963Z,15.92
2018-09-06T02:32:26.043Z,15.95
2018-09-06T02:34:54.221Z,15.88
2018-09-06T02:37:22.396Z,15.89
2018-09-06T02:39:50.470Z,16.05
2018-09-06T02:42:18.933Z,16.14
2018-09-06T02:44:47.003Z,15.87
2018-09-06T02:47:15.095Z,15.73
2018-09-06T02:49:48.466Z,15.73
2018-09-06T02:52:16.616Z,15.74
2018-09-06T02:54:44.704Z,15.70
2018-09-06T02:57:12.786Z,15.76
2018-09-06T02:59:48.444Z,15.63
2018-09-06T03:02:16.518Z,15.57
2018-09-06T03:04:44.656Z,15.55
2018-09-06T03:07:12.749Z,15.33
2018-09-06T03:09:41.226Z,15.32
2018-09-06T03:12:10.208Z,15.47
2018-09-06T03:14:38.258Z,15.57
2018-09-06T03:17:06.378Z,15.70
2018-09-06T03:19:35.331Z,15.78
2018-09-06T03:22:03.464Z,15.73
2018-09-06T03:24:31.681Z,15.58
2018-09-06T03:26:59.766Z,15.33
2018-09-06T03:29:27.850Z,15.08
2018-09-06T03:31:55.920Z,15.10
2018-09-06T03:34:24.114Z,15.14
2018-09-06T03:36:52.399Z,15.20
2018-09-06T03:39:21.188Z,15.33
2018-09-06T03:41:49.259Z,15.37
2018-09-06T03:44:17.352Z,15.39
2018-09-06T03:46:45.426Z,15.37
2018-09-06T03:49:14.587Z,15.42
2018-09-06T03:51:42.854Z,15.48
2018-09-06T03:54:10.930Z,15.55
2018-09-06T03:56:38.998Z,15.57
2018-09-06T03:59:07.165Z,15.61
2018-09-06T04:01:35.223Z,15.60
2018-09-06T04:04:03.298Z,15.83
2018-09-06T04:06:31.372Z,16.05
2018-09-06T04:08:59.492Z,15.93
2018-09-06T04:11:27.644Z,15.85
2018-09-06T04:13:55.729Z,15.54
2018-09-06T04:16:23.962Z,15.51
2018-09-06T04:18:52.043Z,15.52
2018-09-06T04:21:20.163Z,15.53
2018-09-06T04:23:48.249Z,15.57
2018-09-06T04:26:16.619Z,15.57
2018-09-06T04:28:44.699Z,15.59
2018-09-06T04:31:12.782Z,15.37
2018-09-06T04:33:41.066Z,15.15
2018-09-06T04:36:09.747Z,14.95
2018-09-06T04:38:38.239Z,15.01
2018-09-06T04:41:06.343Z,15.13
2018-09-06T04:43:34.442Z,15.28
2018-09-06T04:46:02.529Z,15.44
2018-09-06T04:48:30.630Z,15.50
2018-09-06T04:50:58.742Z,15.51
2018-09-06T04:53:26.820Z,15.56
2018-09-06T04:55:54.951Z,15.73
2018-09-06T04:58:23.060Z,15.77
2018-09-06T05:00:51.134Z,15.87
2018-09-06T05:03:19.572Z,15.88
2018-09-06T05:05:47.663Z,15.80
2018-09-06T05:08:15.960Z,15.83
2018-09-06T05:10:44.038Z,15.57
2018-09-06T05:13:12.097Z,15.41
2018-09-06T05:15:40.198Z,15.35
2018-09-06T05:18:08.275Z,15.48
2018-09-06T05:20:36.467Z,15.48
2018-09-06T05:23:05.115Z,15.42
2018-09-06T05:25:33.319Z,15.60
2018-09-06T05:28:01.435Z,15.74
2018-09-06T05:30:29.537Z,15.63
2018-09-06T05:32:57.737Z,15.65
2018-09-06T05:35:25.962Z,15.74
2018-09-06T05:37:54.063Z,15.80
2018-09-06T05:40:22.163Z,15.94
2018-09-06T05:42:50.288Z,16.12
2018-09-06T05:45:18.730Z,16.32
2018-09-06T05:47:51.011Z,16.38
2018-09-06T05:50:19.104Z,16.55
2018-09-06T05:52:47.208Z,16.71
2018-09-06T05:55:15.308Z,16.82
2018-09-06T05:57:43.402Z,17.04
2018-09-06T06:00:17.048Z,17.21
2018-09-06T06:02:45.135Z,17.40
2018-09-06T06:05:13.334Z,17.66
2018-09-06T06:07:53.331Z,17.84
2018-09-06T06:10:21.431Z,17.93
2018-09-06T06:12:49.547Z,17.97
2018-09-06T06:15:17.965Z,17.89
2018-09-06T06:17:46.086Z,17.87
2018-09-06T06:20:14.196Z,17.38
2018-09-06T06:22:43.114Z,17.27
2018-09-06T06:25:11.215Z,17.26
2018-09-06T06:27:39.323Z,17.22
2018-09-06T06:30:07.926Z,17.34
2018-09-06T06:32:36.043Z,17.51
2018-09-06T06:35:04.488Z,17.59
2018-09-06T06:37:32.879Z,17.75
2018-09-06T06:40:01.313Z,17.82
2018-09-06T06:42:29.416Z,17.86
2018-09-06T06:44:57.542Z,17.99
2018-09-06T06:47:26.303Z,18.10
2018-09-06T06:49:54.382Z,18.21
2018-09-06T06:52:22.475Z,18.49
2018-09-06T06:54:50.667Z,18.95
2018-09-06T06:57:18.751Z,19.25
2018-09-06T06:59:46.847Z,19.48
2018-09-06T07:02:14.959Z,19.53
2018-09-06T07:04:43.053Z,19.69
2018-09-06T07:07:11.177Z,19.53
2018-09-06T07:09:39.208Z,19.58
2018-09-06T07:12:07.298Z,19.81
2018-09-06T07:14:35.394Z,20.12
2018-09-06T07:17:03.559Z,20.11
2018-09-06T07:19:31.645Z,20.16
2018-09-06T07:21:59.720Z,20.22
2018-09-06T07:24:27.808Z,20.27
2018-09-06T07:26:55.900Z,20.16
2018-09-06T07:29:24.001Z,20.39
2018-09-06T07:31:52.097Z,20.68
2018-09-06T07:34:20.256Z,20.62
2018-09-06T07:36:48.363Z,20.58
2018-09-06T07:39:16.507Z,20.82
2018-09-06T07:41:44.837Z,20.88
2018-09-06T07:44:12.939Z,20.80
2018-09-06T07:46:41.317Z,21.07
2018-09-06T07:49:09.437Z,20.93
2018-09-06T07:51:37.546Z,21.00
2018-09-06T07:54:05.719Z,20.99
2018-09-06T07:56:33.846Z,21.12
2018-09-06T07:59:01.966Z,21.11
2018-09-06T08:01:30.084Z,21.15
2018-09-06T08:03:58.189Z,21.24
2018-09-06T08:06:26.283Z,21.37
2018-09-06T08:08:54.596Z,21.58
2018-09-06T08:11:23.039Z,21.72
2018-09-06T08:13:51.167Z,21.98
2018-09-06T08:16:19.273Z,21.97
2018-09-06T08:18:47.555Z,21.91
2018-09-06T08:21:15.642Z,22.08
2018-09-06T08:23:43.786Z,22.43
2018-09-06T08:26:11.931Z,22.75
2018-09-06T08:28:40.365Z,22.50
2018-09-06T08:31:08.569Z,22.33
2018-09-06T08:33:36.566Z,22.30
2018-09-06T08:36:05.868Z,22.53
2018-09-06T08:38:33.938Z,22.79
2018-09-06T08:41:02.125Z,23.09
2018-09-06T08:43:30.228Z,23.16
2018-09-06T08:45:58.339Z,22.73
2018-09-06T08:48:26.447Z,23.04
2018-09-06T08:50:54.532Z,23.18
2018-09-06T08:53:22.638Z,23.30
2018-09-06T08:55:50.983Z,23.15
2018-09-06T08:58:19.286Z,23.29
2018-09-06T09:00:52.601Z,23.19
2018-09-06T09:03:20.700Z,23.44
2018-09-06T09:05:49.640Z,23.50
2018-09-06T09:08:17.768Z,23.34
2018-09-06T09:10:45.840Z,23.42
2018-09-06T09:13:13.919Z,23.74
2018-09-06T09:15:42.219Z,23.81
2018-09-06T09:18:10.295Z,24.14
2018-09-06T09:20:38.464Z,23.99
2018-09-06T09:23:06.545Z,24.03
2018-09-06T09:25:34.707Z,24.12
2018-09-06T09:28:02.726Z,24.18
2018-09-06T09:30:30.836Z,24.00
2018-09-06T09:32:59.152Z,23.82
2018-09-06T09:35:27.274Z,23.83
2018-09-06T09:37:55.382Z,23.95
2018-09-06T09:40:23.533Z,24.11
2018-09-06T09:42:51.999Z,24.34
2018-09-06T09:45:20.110Z,24.62
2018-09-06T09:47:48.233Z,24.82
2018-09-06T09:52:43.723Z,24.51
2018-09-06T09:55:11.865Z,24.04
2018-09-06T09:57:39.963Z,24.34
2018-09-06T10:00:08.062Z,24.50
2018-09-06T10:02:41.510Z,24.66
2018-09-06T10:06:17.341Z,24.81
2018-09-06T10:08:50.888Z,24.99
2018-09-06T10:11:19.274Z,25.21
2018-09-06T10:13:47.423Z,25.43
2018-09-06T10:16:15.542Z,25.69
2018-09-06T10:18:43.688Z,25.74
2018-09-06T10:21:11.796Z,25.76
2018-09-06T10:23:39.885Z,25.62
2018-09-06T10:26:08.007Z,25.36
2018-09-06T10:28:36.117Z,25.43
2018-09-06T10:31:04.257Z,25.34
2018-09-06T10:33:32.366Z,25.55
2018-09-06T10:36:00.475Z,25.53
2018-09-06T10:38:28.574Z,25.67
2018-09-06T10:40:56.680Z,25.70
2018-09-06T10:43:24.802Z,25.85
2018-09-06T10:45:54.650Z,26.17
2018-09-06T10:48:24.024Z,26.42
2018-09-06T10:50:52.359Z,26.84
2018-09-06T10:53:20.722Z,27.12
2018-09-06T10:55:48.834Z,26.94
2018-09-06T10:58:16.922Z,27.03
2018-09-06T11:00:46.452Z,27.11
2018-09-06T11:03:14.427Z,27.25
2018-09-06T11:05:42.530Z,27.41
2018-09-06T11:08:10.638Z,27.30
2018-09-06T11:10:38.675Z,26.83
2018-09-06T11:13:06.764Z,26.72
2018-09-06T11:15:34.823Z,26.78
2018-09-06T11:18:03.012Z,26.69
2018-09-06T11:20:31.205Z,26.76
2018-09-06T11:22:59.273Z,26.79
2018-09-06T11:25:27.764Z,26.93
2018-09-06T11:27:55.922Z,26.97
2018-09-06T11:30:24.847Z,26.95
2018-09-06T11:32:52.938Z,26.83
2018-09-06T11:35:21.051Z,26.95
2018-09-06T11:37:49.141Z,27.29
2018-09-06T11:40:17.249Z,27.41
2018-09-06T11:42:45.322Z,27.61
2018-09-06T11:45:13.427Z,27.49
2018-09-06T11:47:41.587Z,27.22
2018-09-06T11:50:09.586Z,27.19
2018-09-06T11:52:37.652Z,27.49
2018-09-06T11:55:05.737Z,27.36
2018-09-06T11:57:33.807Z,27.58
2018-09-06T12:00:01.937Z,27.50
2018-09-06T12:02:30.031Z,27.50
2018-09-06T12:04:58.127Z,27.32
2018-09-06T12:07:26.186Z,27.38
2018-09-06T12:09:54.273Z,27.36
2018-09-06T12:12:22.372Z,27.39
2018-09-06T12:14:50.451Z,27.28
2018-09-06T12:17:18.537Z,27.10
2018-09-06T12:19:46.607Z,26.85
2018-09-06T12:22:14.700Z,27.22
2018-09-06T12:24:43.063Z,27.65
2018-09-06T12:27:11.523Z,27.93
2018-09-06T12:29:39.611Z,27.72
2018-09-06T12:32:08.227Z,27.20
2018-09-06T12:34:36.343Z,26.79
2018-09-06T12:37:08.440Z,26.83
2018-09-06T12:39:36.519Z,26.92
2018-09-06T12:42:04.584Z,27.03
2018-09-06T12:44:32.655Z,27.29
2018-09-06T12:47:00.796Z,27.30
2018-09-06T12:49:28.988Z,27.41
2018-09-06T12:51:57.044Z,27.30
2018-09-06T12:54:25.134Z,27.29
2018-09-06T12:56:53.208Z,27.30
2018-09-06T12:59:21.511Z,27.33
2018-09-06T13:01:49.743Z,27.17
2018-09-06T13:04:17.832Z,27.11
2018-09-06T13:06:45.923Z,26.91
2018-09-06T13:09:13.990Z,26.72
2018-09-06T13:11:42.071Z,26.66
2018-09-06T13:14:10.137Z,26.80
2018-09-06T13:16:38.220Z,26.77
2018-09-06T13:19:06.284Z,26.82
2018-09-06T13:21:34.362Z,26.82
2018-09-06T13:24:02.567Z,26.93
2018-09-06T13:26:30.647Z,27.06
2018-09-06T13:28:58.717Z,27.08
2018-09-06T13:31:26.779Z,27.31
2018-09-06T13:33:54.942Z,27.71
2018-09-06T13:36:23.035Z,28.00
2018-09-06T13:38:51.100Z,27.97
2018-09-06T13:41:19.210Z,27.89
2018-09-06T13:43:47.320Z,27.48
2018-09-06T13:46:15.395Z,27.73
2018-09-06T13:48:43.462Z,28.12
2018-09-06T13:51:11.540Z,28.09
2018-09-06T13:53:39.639Z,28.39
2018-09-06T13:56:07.722Z,28.48
2018-09-06T13:58:35.799Z,28.37
2018-09-06T14:01:03.903Z,28.37
2018-09-06T14:03:31.963Z,28.13
2018-09-06T14:06:00.155Z,28.07
2018-09-06T14:08:29.037Z,28.03
2018-09-06T14:10:57.121Z,27.47
2018-09-06T14:13:25.207Z,27.46
2018-09-06T14:15:53.295Z,27.64
2018-09-06T14:18:21.379Z,27.64
2018-09-06T14:20:49.482Z,28.08
2018-09-06T14:23:17.569Z,28.24
2018-09-06T14:25:45.653Z,28.29
2018-09-06T14:28:13.753Z,27.94
2018-09-06T14:30:41.819Z,27.90
2018-09-06T14:33:09.918Z,28.08
2018-09-06T14:35:38.020Z,28.04
2018-09-06T14:38:07.182Z,28.08
2018-09-06T14:40:35.232Z,28.23
2018-09-06T14:43:03.365Z,28.40
2018-09-06T14:45:31.431Z,28.41
2018-09-06T14:48:00.646Z,28.42
2018-09-06T14:50:28.718Z,28.45
2018-09-06T14:52:56.794Z,28.39
2018-09-06T14:55:24.863Z,27.55
2018-09-06T14:57:53.249Z,27.45
2018-09-06T15:00:21.327Z,27.49
2018-09-06T15:02:49.458Z,27.59
2018-09-06T15:05:17.531Z,27.58
2018-09-06T15:07:45.621Z,27.61
2018-09-06T15:10:14.027Z,27.63
2018-09-06T15:12:42.115Z,27.52
2018-09-06T15:15:10.246Z,27.36
2018-09-06T15:17:38.337Z,27.19
2018-09-06T15:20:06.472Z,27.07
2018-09-06T15:22:34.479Z,26.91
2018-09-06T15:25:02.587Z,26.64
2018-09-06T15:27:31.533Z,26.67
2018-09-06T15:29:59.623Z,26.43
2018-09-06T15:32:27.728Z,26.30
2018-09-06T15:34:55.812Z,26.05
2018-09-06T15:37:23.915Z,24.97
2018-09-06T15:39:52.011Z,23.99
2018-09-06T15:42:20.196Z,23.49
2018-09-06T15:44:48.328Z,23.22
2018-09-06T15:47:16.420Z,23.02
2018-09-06T15:49:44.575Z,22.46
2018-09-06T15:52:13.139Z,22.34
2018-09-06T15:54:41.231Z,22.11
2018-09-06T15:57:10.448Z,21.99
2018-09-06T15:59:38.540Z,21.79
2018-09-06T16:02:06.643Z,21.51
2018-09-06T16:07:37.716Z,20.86
2018-09-06T16:10:05.855Z,20.72
2018-09-06T16:12:33.890Z,20.68
2018-09-06T16:15:03.069Z,20.51
2018-09-06T16:17:31.162Z,20.58
2018-09-06T16:19:59.247Z,20.69
2018-09-06T16:22:27.336Z,20.92
2018-09-06T16:24:55.443Z,21.13
2018-09-06T16:27:23.522Z,21.27
2018-09-06T16:29:51.756Z,21.37
2018-09-06T16:32:19.844Z,20.96
2018-09-06T16:34:47.945Z,20.05
2018-09-06T16:37:16.110Z,19.75
2018-09-06T16:39:44.087Z,19.76
2018-09-06T16:42:12.217Z,19.46
2018-09-06T16:44:40.281Z,19.25
2018-09-06T16:47:08.342Z,19.08
2018-09-06T16:49:36.714Z,19.24
2018-09-06T16:52:04.774Z,19.11
2018-09-06T16:54:32.992Z,19.08
2018-09-06T16:57:01.082Z,19.10
2018-09-06T16:59:29.170Z,19.17
2018-09-06T17:01:57.261Z,19.18
2018-09-06T17:04:25.368Z,18.90
2018-09-06T17:06:53.518Z,18.77
2018-09-06T17:09:22.380Z,18.83
2018-09-06T17:11:50.438Z,19.04
2018-09-06T17:14:18.524Z,19.14
2018-09-06T17:16:47.647Z,19.20
2018-09-06T17:19:16.594Z,19.14
2018-09-06T17:21:44.716Z,19.09
2018-09-06T17:24:13.125Z,18.81
2018-09-06T17:26:41.195Z,18.79
2018-09-06T17:29:12.554Z,18.72
2018-09-06T17:31:40.647Z,18.66
2018-09-06T17:34:13.942Z,18.71
2018-09-06T17:36:42.039Z,18.75
2018-09-06T17:39:12.078Z,18.85
2018-09-06T17:41:40.167Z,18.93
2018-09-06T17:44:08.248Z,18.90
2018-09-06T17:46:36.727Z,18.88
2018-09-06T17:49:04.870Z,18.94
2018-09-06T17:51:32.980Z,18.91
2018-09-06T17:54:01.104Z,18.71
2018-09-06T17:56:29.235Z,18.56
2018-09-06T17:58:57.351Z,18.66
2018-09-06T18:01:34.467Z,18.71
2018-09-06T18:04:03.325Z,18.72
2018-09-06T18:06:31.443Z,18.70
2018-09-06T18:08:59.562Z,18.73
2018-09-06T18:11:28.458Z,18.48
2018-09-06T18:13:57.049Z,18.37
2018-09-06T18:16:25.156Z,18.26
2018-09-06T18:18:54.321Z,18.33
2018-09-06T18:21:25.839Z,18.39
2018-09-06T18:23:54.227Z,18.30
2018-09-06T18:26:22.324Z,18.16
2018-09-06T18:28:50.510Z,18.27
2018-09-06T18:31:18.628Z,18.31
2018-09-06T18:33:46.763Z,18.36
2018-09-06T18:36:14.871Z,18.33
2018-09-06T18:38:43.598Z,18.34
2018-09-06T18:41:11.698Z,18.25
2018-09-06T18:43:39.824Z,18.31
2018-09-06T18:46:08.403Z,18.38
2018-09-06T18:48:36.887Z,18.46
2018-09-06T18:51:05.079Z,18.48
2018-09-06T18:53:33.480Z,18.38
2018-09-06T18:56:01.636Z,18.30
2018-09-06T18:58:33.111Z,18.39
2018-09-06T19:01:01.203Z,18.42
2018-09-06T19:03:29.355Z,18.45
2018-09-06T19:05:57.467Z,18.49
2018-09-06T19:08:25.562Z,18.46
2018-09-06T19:10:53.670Z,18.41
2018-09-06T19:13:21.791Z,18.42
2018-09-06T19:15:50.166Z,18.44
2018-09-06T19:18:18.286Z,18.42
2018-09-06T19:20:46.430Z,18.43
2018-09-06T19:23:14.549Z,18.26
2018-09-06T19:25:42.650Z,18.26
2018-09-06T19:28:11.464Z,18.15
2018-09-06T19:30:40.300Z,18.14
2018-09-06T19:33:08.378Z,18.08
2018-09-06T19:35:36.478Z,18.02
2018-09-06T19:38:04.625Z,18.16
2018-09-06T19:40:32.904Z,18.15
2018-09-06T19:43:01.356Z,18.11
2018-09-06T19:45:29.463Z,18.06
2018-09-06T19:47:57.575Z,18.04
2018-09-06T19:50:26.336Z,18.11
2018-09-06T19:52:54.438Z,18.05
2018-09-06T19:55:22.559Z,18.06
2018-09-06T19:57:50.666Z,18.08
2018-09-06T20:00:18.795Z,18.12
2018-09-06T20:02:46.924Z,18.24
2018-09-06T20:05:15.003Z,18.21
2018-09-06T20:07:43.117Z,18.21
2018-09-06T20:10:11.909Z,18.26
2018-09-06T20:12:40.077Z,18.32
2018-09-06T20:15:08.498Z,18.06
2018-09-06T20:17:36.591Z,17.87
2018-09-06T20:20:04.679Z,17.82
2018-09-06T20:22:32.779Z,17.82
2018-09-06T20:25:00.881Z,17.85
2018-09-06T20:27:28.964Z,17.76
2018-09-06T20:29:57.393Z,17.75
2018-09-06T20:32:26.476Z,17.71
2018-09-06T20:34:55.128Z,17.78
2018-09-06T20:37:23.493Z,17.74
2018-09-06T20:39:51.564Z,17.73
2018-09-06T20:42:19.619Z,17.71
2018-09-06T20:44:47.694Z,17.66
2018-09-06T20:47:15.787Z,17.62
2018-09-06T20:49:44.395Z,17.50
2018-09-06T20:52:12.467Z,17.50
2018-09-06T20:54:40.540Z,17.48
2018-09-06T20:57:08.612Z,17.41
2018-09-06T20:59:36.700Z,17.39
2018-09-06T21:02:10.031Z,17.35
2018-09-06T21:04:38.123Z,17.29
2018-09-06T21:07:06.203Z,17.26
2018-09-06T21:09:34.278Z,17.19
2018-09-06T21:12:02.462Z,17.15
2018-09-06T21:14:31.309Z,17.12
2018-09-06T21:16:59.320Z,17.17
2018-09-06T21:19:27.448Z,17.30
2018-09-06T21:21:55.639Z,17.23
2018-09-06T21:24:23.740Z,17.23
2018-09-06T21:26:51.819Z,17.14
2018-09-06T21:29:19.910Z,17.12
2018-09-06T21:31:48.047Z,17.18
2018-09-06T21:34:16.137Z,17.30
2018-09-06T21:36:44.242Z,17.27
2018-09-06T21:39:13.271Z,17.35
2018-09-06T21:41:42.654Z,17.27
2018-09-06T21:44:11.056Z,17.28
2018-09-06T21:46:39.487Z,17.21
2018-09-06T21:49:07.860Z,17.27
2018-09-06T21:51:35.946Z,17.19
2018-09-06T21:54:04.035Z,17.03
2018-09-06T21:56:32.134Z,17.00
2018-09-06T21:59:00.221Z,17.05
2018-09-06T22:24:07.727Z,17.21
2018-09-06T22:26:36.062Z,17.19
2018-09-06T22:29:04.322Z,17.08
2018-09-06T22:31:32.635Z,17.16
2018-09-06T22:34:00.809Z,17.04
2018-09-06T22:36:28.988Z,16.95
2018-09-06T22:38:57.115Z,16.93
2018-09-06T22:41:25.285Z,16.89
2018-09-06T22:43:53.461Z,16.86
2018-09-06T22:46:21.733Z,16.90
2018-09-06T22:48:50.395Z,16.89
2018-09-06T22:51:20.930Z,16.93
2018-09-06T22:53:49.291Z,16.84
2018-09-06T22:56:17.516Z,16.70
2018-09-06T22:58:45.788Z,16.68
2018-09-06T23:01:20.776Z,16.65
2018-09-06T23:03:52.378Z,16.62
2018-09-06T23:06:20.673Z,16.66
2018-09-06T23:08:49.592Z,16.67
2018-09-06T23:11:17.741Z,16.59
2018-09-06T23:13:45.951Z,16.55
2018-09-06T23:16:20.611Z,16.57
2018-09-06T23:18:48.780Z,16.62
2018-09-06T23:21:16.957Z,16.59
2018-09-06T23:23:45.150Z,16.48
2018-09-06T23:26:14.220Z,16.39
2018-09-06T23:28:42.405Z,16.44
2018-09-06T23:31:10.596Z,16.39
2018-09-06T23:33:38.749Z,16.38
